Menu Close Menu
Station Historical Data
Daily Summary for September 7, 2017 Units:  English    Metric   Both
« Previous Day
Next Day »
Daily Weekly Monthly Yearly Custom
  High: Low: Average:
Temperature: 76.2 °F 52.0 °F 65.4 °F
Dew Point: 54.4 °F 43.3 °F 50.2 °F
Humidity: 91% 35% 61%
Wind Speed: 2.0mph 0.0mph 0.1mph
Wind Gust: 5.0mph - -
Wind- - SSW
Pressure: 30.17 in 30.09 in -
Precipitation: 0.00 in    
Historical Graphs
 
 
Tabular Data for September 7, 2017
Time Temperature Dew Point Pressure Wind Wind Speed Wind Gust Humidity Rainfall Rate (Hourly) solar Conditions
06:15 54.3 °F 49.9 °F 30.09 in Calm   1.0 mph 85% 0.00 in WeatherDisplay:10.37 W/m2 FEW
06:20 54.3 °F 49.9 °F 30.09 in Calm   1.0 mph 85% 0.00 in WeatherDisplay:10.37 W/m2 FEW
06:25 54.2 °F 49.7 °F 30.09 in Calm   1.0 mph 85% 0.00 in WeatherDisplay:10.37 W/m2 FEW
06:30 53.9 °F 49.8 °F 30.09 in Calm     86% 0.00 in WeatherDisplay:10.37 W/m2 CLR
06:35 53.6 °F 49.8 °F 30.10 in Calm     87% 0.00 in WeatherDisplay:10.37 W/m2 CLR
06:40 53.1 °F 49.4 °F 30.10 in Calm     87% 0.00 in WeatherDisplay:10.37 W/m2 CLR
06:45 52.8 °F 49.0 °F 30.10 in Calm     87% 0.00 in WeatherDisplay:10.37 W/m2 CLR
06:50 52.5 °F 49.0 °F 30.10 in Calm   1.0 mph 88% 0.00 in WeatherDisplay:10.37 W/m2 CLR
06:55 52.3 °F 48.9 °F 30.10 in Calm     88% 0.00 in WeatherDisplay:10.37 W/m2 CLR
07:00 52.2 °F 49.1 °F 30.10 in Calm     89% 0.00 in WeatherDisplay:10.37 W/m2 CLR
07:05 52.2 °F 49.4 °F 30.10 in Calm     90% 0.00 in WeatherDisplay:10.37 W/m2 CLR
07:10 52.1 °F 49.3 °F 30.11 in Calm     90% 0.00 in WeatherDisplay:10.37 W/m2 CLR
07:15 52.1 °F 49.3 °F 30.11 in Calm     90% 0.00 in WeatherDisplay:10.37 W/m2 CLR
07:20 52.2 °F 49.4 °F 30.11 in Calm     90% 0.00 in WeatherDisplay:10.37 W/m2 CLR
07:25 52.2 °F 49.3 °F 30.12 in Calm     90% 0.00 in WeatherDisplay:10.37 W/m2 CLR
07:30 52.1 °F 49.3 °F 30.12 in Calm     90% 0.00 in WeatherDisplay:10.37 W/m2 CLR
07:35 52.0 °F 49.2 °F 30.12 in Calm     90% 0.00 in WeatherDisplay:10.37 W/m2 CLR
07:40 52.0 °F 49.5 °F 30.12 in Calm     91% 0.00 in WeatherDisplay:10.37 W/m2 CLR
07:45 52.0 °F 49.5 °F 30.13 in Calm     91% 0.00 in WeatherDisplay:10.37 W/m2 CLR
07:50 52.4 °F 49.8 °F 30.13 in Calm     91% 0.00 in WeatherDisplay:10.37 W/m2 CLR
07:55 52.7 °F 50.1 °F 30.13 in Calm     91% 0.00 in WeatherDisplay:10.37 W/m2 CLR
08:00 52.9 °F 50.4 °F 30.13 in Calm     91% 0.00 in WeatherDisplay:10.37 W/m2 CLR
08:05 53.5 °F 51.0 °F 30.13 in Calm     91% 0.00 in WeatherDisplay:10.37 W/m2 CLR
08:10 54.2 °F 51.1 °F 30.14 in Calm     89% 0.00 in WeatherDisplay:10.37 W/m2 CLR
08:15 54.9 °F 51.4 °F 30.14 in Calm     88% 0.00 in WeatherDisplay:10.37 W/m2 CLR
08:20 55.3 °F 51.5 °F 30.14 in Calm     87% 0.00 in WeatherDisplay:10.37 W/m2 CLR
08:25 55.4 °F 51.6 °F 30.14 in Calm     87% 0.00 in WeatherDisplay:10.37 W/m2 CLR
08:30 55.6 °F 51.8 °F 30.14 in Calm     87% 0.00 in WeatherDisplay:10.37 W/m2 CLR
08:35 55.6 °F 51.5 °F 30.14 in Calm     86% 0.00 in WeatherDisplay:10.37 W/m2 CLR
08:40 55.6 °F 51.5 °F 30.15 in Calm     86% 0.00 in WeatherDisplay:10.37 W/m2 CLR
08:45 55.8 °F 52.0 °F 30.15 in Calm     87% 0.00 in WeatherDisplay:10.37 W/m2 CLR
08:50 56.1 °F 52.3 °F 30.15 in Calm     87% 0.00 in WeatherDisplay:10.37 W/m2 CLR
08:55 56.5 °F 52.0 °F 30.15 in Calm   1.0 mph 85% 0.00 in WeatherDisplay:10.37 W/m2 CLR
09:00 56.8 °F 52.3 °F 30.15 in Calm   1.0 mph 85% 0.00 in WeatherDisplay:10.37 W/m2 CLR
09:10 57.6 °F 52.1 °F 30.15 in Calm   1.0 mph 82% 0.00 in WeatherDisplay:10.37 W/m2 CLR
09:15 58.0 °F 52.2 °F 30.16 in Calm   1.0 mph 81% 0.00 in WeatherDisplay:10.37 W/m2 CLR
09:20 58.3 °F 51.8 °F 30.16 in Calm   1.0 mph 79% 0.00 in WeatherDisplay:10.37 W/m2 FEW
09:25 58.7 °F 52.2 °F 30.16 in Calm     79% 0.00 in WeatherDisplay:10.37 W/m2 FEW
09:30 59.0 °F 51.8 °F 30.16 in Calm     77% 0.00 in WeatherDisplay:10.37 W/m2 FEW
09:35 59.5 °F 52.3 °F 30.16 in Calm   1.0 mph 77% 0.00 in WeatherDisplay:10.37 W/m2 FEW
09:40 59.9 °F 51.6 °F 30.16 in SW 1.0 mph 3.0 mph 74% 0.00 in WeatherDisplay:10.37 W/m2 FEW
09:45 60.3 °F 51.6 °F 30.16 in Calm   1.0 mph 73% 0.00 in WeatherDisplay:10.37 W/m2 FEW
09:50 60.7 °F 52.0 °F 30.16 in Calm   1.0 mph 73% 0.00 in WeatherDisplay:10.37 W/m2 FEW
09:55 61.1 °F 52.4 °F 30.16 in Calm   1.0 mph 73% 0.00 in WeatherDisplay:10.37 W/m2 FEW
10:00 61.6 °F 52.8 °F 30.16 in Calm     73% 0.00 in WeatherDisplay:10.37 W/m2 FEW
10:10 62.2 °F 51.9 °F 30.17 in Calm   1.0 mph 69% 0.00 in WeatherDisplay:10.37 W/m2 FEW
10:15 62.6 °F 52.3 °F 30.17 in Calm   2.0 mph 69% 0.00 in WeatherDisplay:10.37 W/m2 FEW
10:20 62.9 °F 51.4 °F 30.17 in Calm   1.0 mph 66% 0.00 in WeatherDisplay:10.37 W/m2 FEW
10:25 63.3 °F 52.6 °F 30.17 in Calm     68% 0.00 in WeatherDisplay:10.37 W/m2 FEW
10:35 64.4 °F 52.4 °F 30.17 in Calm   1.0 mph 65% 0.00 in WeatherDisplay:10.37 W/m2 FEW
10:40 64.8 °F 51.9 °F 30.17 in Calm   2.0 mph 63% 0.00 in WeatherDisplay:10.37 W/m2 FEW
10:45 65.1 °F 51.3 °F 30.17 in Calm   1.0 mph 61% 0.00 in WeatherDisplay:10.37 W/m2 FEW
10:50 65.5 °F 50.8 °F 30.17 in NE 1.0 mph 2.0 mph 59% 0.00 in WeatherDisplay:10.37 W/m2 FEW
10:55 65.9 °F 52.0 °F 30.17 in Calm   1.0 mph 61% 0.00 in WeatherDisplay:10.37 W/m2 FEW
11:00 66.3 °F 50.1 °F 30.17 in Calm   1.0 mph 56% 0.00 in WeatherDisplay:10.37 W/m2 FEW
11:05 66.6 °F 50.9 °F 30.17 in Calm     57% 0.00 in WeatherDisplay:10.37 W/m2 FEW
11:10 67.0 °F 51.3 °F 30.17 in Calm     57% 0.00 in WeatherDisplay:10.37 W/m2 FEW
11:15 67.6 °F 51.3 °F 30.17 in Calm   2.0 mph 56% 0.00 in WeatherDisplay:10.37 W/m2 FEW
11:20 68.0 °F 51.7 °F 30.17 in Calm   2.0 mph 56% 0.00 in WeatherDisplay:10.37 W/m2 FEW
11:25 68.0 °F 50.2 °F 30.17 in Calm   1.0 mph 53% 0.00 in WeatherDisplay:10.37 W/m2 FEW
11:30 68.1 °F 49.8 °F 30.17 in Calm   1.0 mph 52% 0.00 in WeatherDisplay:10.37 W/m2 FEW
11:35 68.3 °F 49.5 °F 30.17 in Calm   1.0 mph 51% 0.00 in WeatherDisplay:10.37 W/m2 FEW
11:40 68.6 °F 50.8 °F 30.17 in Calm   1.0 mph 53% 0.00 in WeatherDisplay:10.37 W/m2 FEW
11:45 69.2 °F 50.3 °F 30.17 in Calm   2.0 mph 51% 0.00 in WeatherDisplay:10.37 W/m2 FEW
11:50 69.0 °F 50.1 °F 30.17 in Calm   1.0 mph 51% 0.00 in WeatherDisplay:10.37 W/m2 FEW
11:55 69.1 °F 49.7 °F 30.17 in Calm   1.0 mph 50% 0.00 in WeatherDisplay:10.37 W/m2 FEW
12:00 69.6 °F 51.7 °F 30.17 in Calm   1.0 mph 53% 0.00 in WeatherDisplay:10.37 W/m2 FEW
12:05 70.3 °F 51.9 °F 30.17 in Calm   1.0 mph 52% 0.00 in WeatherDisplay:10.37 W/m2 FEW
12:10 70.8 °F 51.7 °F 30.17 in Calm   5.0 mph 51% 0.00 in WeatherDisplay:10.37 W/m2 FEW
12:15 71.0 °F 51.4 °F 30.17 in Calm   2.0 mph 50% 0.00 in WeatherDisplay:10.37 W/m2 FEW
12:20 71.4 °F 51.8 °F 30.17 in NW 1.0 mph 2.0 mph 50% 0.00 in WeatherDisplay:10.37 W/m2 FEW
12:25 71.5 °F 50.7 °F 30.17 in WNW 1.0 mph 2.0 mph 48% 0.00 in WeatherDisplay:10.37 W/m2 FEW
12:30 71.5 °F 53.5 °F 30.17 in Calm   1.0 mph 53% 0.00 in WeatherDisplay:10.37 W/m2 FEW
12:40 73.6 °F 52.7 °F 30.17 in Calm   1.0 mph 48% 0.00 in WeatherDisplay:10.37 W/m2 FEW
12:45 74.3 °F 52.7 °F 30.17 in Calm   1.0 mph 47% 0.00 in WeatherDisplay:10.37 W/m2 FEW
12:50 74.1 °F 48.9 °F 30.16 in West 1.0 mph 3.0 mph 41% 0.00 in WeatherDisplay:10.37 W/m2 FEW
12:55 74.7 °F 50.7 °F 30.16 in Calm   1.0 mph 43% 0.00 in WeatherDisplay:10.37 W/m2 FEW
13:00 75.7 °F 49.6 °F 30.16 in Calm   1.0 mph 40% 0.00 in WeatherDisplay:10.37 W/m2 FEW
13:10 76.2 °F 47.3 °F 30.16 in WNW 1.0 mph 2.0 mph 36% 0.00 in WeatherDisplay:10.37 W/m2 FEW
13:15 75.6 °F 48.2 °F 30.16 in Calm   3.0 mph 38% 0.00 in WeatherDisplay:10.37 W/m2 FEW
13:20 75.0 °F 47.7 °F 30.16 in SSW 1.0 mph 2.0 mph 38% 0.00 in WeatherDisplay:10.37 W/m2 FEW
13:25 74.3 °F 49.7 °F 30.15 in Calm   2.0 mph 42% 0.00 in WeatherDisplay:10.37 W/m2 FEW
13:30 74.2 °F 47.7 °F 30.15 in SE 1.0 mph 2.0 mph 39% 0.00 in WeatherDisplay:10.37 W/m2 FEW
13:35 74.2 °F 48.3 °F 30.15 in Calm   2.0 mph 40% 0.00 in WeatherDisplay:10.37 W/m2 FEW
13:40 74.7 °F 48.8 °F 30.15 in South 2.0 mph 5.0 mph 40% 0.00 in WeatherDisplay:10.37 W/m2 FEW
13:45 74.4 °F 51.0 °F 30.15 in Calm   2.0 mph 44% 0.00 in WeatherDisplay:10.37 W/m2 FEW
13:50 74.2 °F 47.6 °F 30.15 in NNE 1.0 mph 5.0 mph 39% 0.00 in WeatherDisplay:10.37 W/m2 FEW
13:55 74.4 °F 50.4 °F 30.15 in SSW 1.0 mph 3.0 mph 43% 0.00 in WeatherDisplay:10.37 W/m2 FEW
14:00 74.9 °F 49.6 °F 30.15 in Calm   2.0 mph 41% 0.00 in WeatherDisplay:10.37 W/m2 FEW
14:05 75.1 °F 50.4 °F 30.15 in Calm   2.0 mph 42% 0.00 in WeatherDisplay:10.37 W/m2 FEW
14:10 75.5 °F 50.2 °F 30.14 in Calm   1.0 mph 41% 0.00 in WeatherDisplay:10.37 W/m2 FEW
14:15 75.5 °F 46.7 °F 30.15 in Calm   2.0 mph 36% 0.00 in WeatherDisplay:10.37 W/m2 FEW
14:20 75.5 °F 45.9 °F 30.14 in Calm   2.0 mph 35% 0.00 in WeatherDisplay:10.37 W/m2 FEW
14:25 75.3 °F 47.2 °F 30.14 in Calm   2.0 mph 37% 0.00 in WeatherDisplay:10.37 W/m2 FEW
14:30 75.2 °F 47.9 °F 30.14 in Calm   1.0 mph 38% 0.00 in WeatherDisplay:10.37 W/m2 FEW
14:35 75.6 °F 48.2 °F 30.14 in Calm   2.0 mph 38% 0.00 in WeatherDisplay:10.37 W/m2 FEW
14:40 75.5 °F 48.1 °F 30.14 in SW 1.0 mph 3.0 mph 38% 0.00 in WeatherDisplay:10.37 W/m2 FEW
14:45 75.2 °F 48.5 °F 30.13 in WSW 1.0 mph 3.0 mph 39% 0.00 in WeatherDisplay:10.37 W/m2 FEW
14:50 74.7 °F 48.1 °F 30.13 in SW 1.0 mph 2.0 mph 39% 0.00 in WeatherDisplay:10.37 W/m2 FEW
14:55 74.3 °F 48.4 °F 30.13 in Calm   2.0 mph 40% 0.00 in WeatherDisplay:10.37 W/m2 FEW
15:00 73.9 °F 46.0 °F 30.13 in Calm   2.0 mph 37% 0.00 in WeatherDisplay:10.37 W/m2 FEW
15:10 73.2 °F 46.1 °F 30.13 in Calm   2.0 mph 38% 0.00 in WeatherDisplay:10.37 W/m2 FEW
15:15 73.0 °F 47.2 °F 30.13 in Calm   1.0 mph 40% 0.00 in WeatherDisplay:10.37 W/m2 FEW
15:20 73.0 °F 48.6 °F 30.13 in Calm   1.0 mph 42% 0.00 in WeatherDisplay:10.37 W/m2 FEW
15:25 73.3 °F 49.4 °F 30.12 in Calm   1.0 mph 43% 0.00 in WeatherDisplay:10.37 W/m2 FEW
15:30 73.2 °F 47.4 °F 30.12 in Calm   3.0 mph 40% 0.00 in WeatherDisplay:10.37 W/m2 FEW
15:35 73.0 °F 46.6 °F 30.12 in Calm   3.0 mph 39% 0.00 in WeatherDisplay:10.37 W/m2 FEW
15:40 73.0 °F 45.2 °F 30.12 in Calm   1.0 mph 37% 0.00 in WeatherDisplay:10.37 W/m2 FEW
15:45 72.9 °F 44.4 °F 30.12 in Calm   1.0 mph 36% 0.00 in WeatherDisplay:10.37 W/m2 FEW
15:50 72.8 °F 44.3 °F 30.11 in Calm   2.0 mph 36% 0.00 in WeatherDisplay:10.37 W/m2 FEW
15:55 72.9 °F 45.1 °F 30.11 in West 1.0 mph 5.0 mph 37% 0.00 in WeatherDisplay:10.37 W/m2 FEW
16:00 72.8 °F 44.3 °F 30.11 in Calm   2.0 mph 36% 0.00 in WeatherDisplay:10.37 W/m2 FEW
16:05 72.7 °F 46.3 °F 30.11 in Calm   2.0 mph 39% 0.00 in WeatherDisplay:10.37 W/m2 FEW
16:10 72.7 °F 43.5 °F 30.11 in Calm   1.0 mph 35% 0.00 in WeatherDisplay:10.37 W/m2 FEW
16:15 72.5 °F 43.3 °F 30.11 in Calm   3.0 mph 35% 0.00 in WeatherDisplay:10.37 W/m2 FEW
16:20 72.4 °F 44.6 °F 30.11 in Calm   1.0 mph 37% 0.00 in WeatherDisplay:10.37 W/m2 FEW
16:25 72.5 °F 44.7 °F 30.11 in Calm   2.0 mph 37% 0.00 in WeatherDisplay:10.37 W/m2 FEW
16:35 72.7 °F 46.3 °F 30.11 in Calm   1.0 mph 39% 0.00 in WeatherDisplay:10.37 W/m2 FEW
16:40 72.7 °F 46.3 °F 30.11 in SSE 1.0 mph 3.0 mph 39% 0.00 in WeatherDisplay:10.37 W/m2 FEW
16:45 72.6 °F 44.8 °F 30.11 in WSW 1.0 mph 2.0 mph 37% 0.00 in WeatherDisplay:10.37 W/m2 FEW
16:50 72.5 °F 46.1 °F 30.11 in Calm   1.0 mph 39% 0.00 in WeatherDisplay:10.37 W/m2 FEW
16:55 72.4 °F 46.7 °F 30.11 in Calm   1.0 mph 40% 0.00 in WeatherDisplay:10.37 W/m2 FEW
17:00 72.3 °F 45.9 °F 30.10 in Calm   1.0 mph 39% 0.00 in WeatherDisplay:10.37 W/m2 FEW
17:05 72.2 °F 47.8 °F 30.11 in Calm   1.0 mph 42% 0.00 in WeatherDisplay:10.37 W/m2 FEW
17:10 72.2 °F 48.5 °F 30.10 in Calm   1.0 mph 43% 0.00 in WeatherDisplay:10.37 W/m2 FEW
17:15 72.2 °F 47.1 °F 30.10 in Calm   2.0 mph 41% 0.00 in WeatherDisplay:10.37 W/m2 FEW
17:20 72.1 °F 47.1 °F 30.10 in Calm   1.0 mph 41% 0.00 in WeatherDisplay:10.37 W/m2 FEW
17:25 72.1 °F 46.4 °F 30.10 in Calm   1.0 mph 40% 0.00 in WeatherDisplay:10.37 W/m2 FEW
17:30 72.0 °F 46.3 °F 30.10 in Calm   2.0 mph 40% 0.00 in WeatherDisplay:10.37 W/m2 FEW
17:35 72.0 °F 46.3 °F 30.10 in Calm     40% 0.00 in WeatherDisplay:10.37 W/m2 FEW
17:40 71.9 °F 47.6 °F 30.10 in Calm     42% 0.00 in WeatherDisplay:10.37 W/m2 FEW
17:45 71.7 °F 46.7 °F 30.11 in Calm     41% 0.00 in WeatherDisplay:10.37 W/m2 FEW
17:50 71.5 °F 48.4 °F 30.10 in Calm     44% 0.00 in WeatherDisplay:10.37 W/m2 FEW
17:55 71.4 °F 49.5 °F 30.11 in Calm     46% 0.00 in WeatherDisplay:10.37 W/m2 FEW
18:00 71.2 °F 48.1 °F 30.11 in Calm   2.0 mph 44% 0.00 in WeatherDisplay:10.37 W/m2 FEW
18:10 70.7 °F 47.7 °F 30.11 in Calm   1.0 mph 44% 0.00 in WeatherDisplay:10.37 W/m2 FEW
18:15 70.5 °F 49.3 °F 30.11 in Calm     47% 0.00 in WeatherDisplay:10.37 W/m2 FEW
18:20 70.2 °F 48.5 °F 30.11 in Calm   1.0 mph 46% 0.00 in WeatherDisplay:10.37 W/m2 CLR
18:25 69.9 °F 48.1 °F 30.11 in Calm   1.0 mph 46% 0.00 in WeatherDisplay:10.37 W/m2 CLR
18:30 69.6 °F 47.3 °F 30.11 in Calm     45% 0.00 in WeatherDisplay:10.37 W/m2 CLR
18:35 69.4 °F 49.9 °F 30.11 in Calm     50% 0.00 in WeatherDisplay:10.37 W/m2 CLR
18:40 69.0 °F 50.2 °F 30.11 in Calm   1.0 mph 51% 0.00 in WeatherDisplay:10.37 W/m2 CLR
18:45 68.8 °F 49.9 °F 30.11 in Calm   1.0 mph 51% 0.00 in WeatherDisplay:10.37 W/m2 CLR
18:55 68.1 °F 49.3 °F 30.11 in Calm   1.0 mph 51% 0.00 in WeatherDisplay:10.37 W/m2 CLR
19:00 67.9 °F 49.6 °F 30.11 in Calm   1.0 mph 52% 0.00 in WeatherDisplay:10.37 W/m2 CLR
19:05 67.7 °F 49.9 °F 30.10 in Calm   1.0 mph 53% 0.00 in WeatherDisplay:10.37 W/m2 CLR
19:10 67.6 °F 50.4 °F 30.10 in Calm   1.0 mph 54% 0.00 in WeatherDisplay:10.37 W/m2 CLR
19:15 67.4 °F 50.7 °F 30.10 in Calm   1.0 mph 55% 0.00 in WeatherDisplay:10.37 W/m2 CLR
19:20 67.2 °F 51.0 °F 30.10 in Calm   1.0 mph 56% 0.00 in WeatherDisplay:10.37 W/m2 FEW
19:25 67.0 °F 50.8 °F 30.10 in Calm     56% 0.00 in WeatherDisplay:10.37 W/m2 FEW
19:30 66.8 °F 51.1 °F 30.10 in Calm     57% 0.00 in WeatherDisplay:10.37 W/m2 FEW
19:35 66.4 °F 51.2 °F 30.10 in Calm     58% 0.00 in WeatherDisplay:10.37 W/m2 FEW
19:40 66.1 °F 51.8 °F 30.10 in Calm   1.0 mph 60% 0.00 in WeatherDisplay:10.37 W/m2 FEW
19:45 65.9 °F 51.6 °F 30.10 in Calm     60% 0.00 in WeatherDisplay:10.37 W/m2 FEW
19:50 65.8 °F 51.5 °F 30.10 in Calm   1.0 mph 60% 0.00 in WeatherDisplay:10.37 W/m2 FEW
20:00 65.6 °F 52.2 °F 30.11 in Calm     62% 0.00 in WeatherDisplay:10.37 W/m2 FEW
20:05 65.4 °F 52.4 °F 30.10 in Calm     63% 0.00 in WeatherDisplay:10.37 W/m2 FEW
20:10 65.1 °F 53.0 °F 30.11 in Calm     65% 0.00 in WeatherDisplay:10.37 W/m2 FEW
20:15 64.8 °F 52.8 °F 30.11 in Calm     65% 0.00 in WeatherDisplay:10.37 W/m2 FEW
20:20 64.5 °F 52.9 °F 30.11 in Calm     66% 0.00 in WeatherDisplay:10.37 W/m2 FEW
20:25 64.3 °F 52.3 °F 30.11 in Calm     65% 0.00 in WeatherDisplay:10.37 W/m2 FEW
20:30 64.0 °F 52.4 °F 30.11 in Calm     66% 0.00 in WeatherDisplay:10.37 W/m2 FEW
20:40 63.6 °F 52.4 °F 30.11 in Calm     67% 0.00 in WeatherDisplay:10.37 W/m2 FEW
20:45 63.3 °F 52.2 °F 30.12 in Calm     67% 0.00 in WeatherDisplay:10.37 W/m2 FEW
20:50 63.1 °F 52.8 °F 30.12 in Calm     69% 0.00 in WeatherDisplay:10.37 W/m2 FEW
20:55 62.8 °F 52.9 °F 30.12 in Calm     70% 0.00 in WeatherDisplay:10.37 W/m2 FEW
21:00 62.5 °F 53.4 °F 30.12 in Calm     72% 0.00 in WeatherDisplay:10.37 W/m2 FEW
21:10 62.2 °F 52.7 °F 30.13 in Calm     71% 0.00 in WeatherDisplay:10.37 W/m2 FEW
21:15 62.0 °F 52.5 °F 30.13 in Calm     71% 0.00 in WeatherDisplay:10.37 W/m2 FEW
21:20 62.0 °F 53.2 °F 30.13 in Calm     73% 0.00 in WeatherDisplay:10.37 W/m2 CLR
21:25 61.9 °F 53.1 °F 30.13 in Calm     73% 0.00 in WeatherDisplay:10.37 W/m2 CLR
21:30 61.7 °F 53.4 °F 30.13 in Calm     74% 0.00 in WeatherDisplay:10.37 W/m2 CLR
21:35 61.5 °F 53.2 °F 30.13 in Calm     74% 0.00 in WeatherDisplay:10.37 W/m2 CLR
21:40 61.3 °F 53.7 °F 30.13 in Calm     76% 0.00 in WeatherDisplay:10.37 W/m2 CLR
21:50 61.2 °F 53.9 °F 30.13 in Calm     77% 0.00 in WeatherDisplay:10.37 W/m2 CLR
22:00 60.7 °F 53.8 °F 30.14 in Calm     78% 0.00 in WeatherDisplay:10.37 W/m2 CLR
22:10 60.5 °F 53.6 °F 30.14 in Calm     78% 0.00 in WeatherDisplay:10.37 W/m2 CLR
22:15 60.4 °F 53.9 °F 30.14 in Calm     79% 0.00 in WeatherDisplay:10.37 W/m2 CLR
22:20 60.3 °F 53.8 °F 30.14 in Calm     79% 0.00 in WeatherDisplay:10.37 W/m2 CLR
22:25 60.2 °F 53.6 °F 30.14 in Calm     79% 0.00 in WeatherDisplay:10.37 W/m2 CLR
22:30 60.1 °F 53.9 °F 30.15 in Calm     80% 0.00 in WeatherDisplay:10.37 W/m2 CLR
22:35 60.0 °F 53.8 °F 30.15 in Calm     80% 0.00 in WeatherDisplay:10.37 W/m2 CLR
22:40 59.8 °F 53.7 °F 30.15 in Calm     80% 0.00 in WeatherDisplay:10.37 W/m2 CLR
22:45 59.7 °F 53.9 °F 30.15 in Calm     81% 0.00 in WeatherDisplay:10.37 W/m2 CLR
22:50 59.6 °F 54.1 °F 30.15 in Calm     82% 0.00 in WeatherDisplay:10.37 W/m2 CLR
22:55 59.5 °F 54.4 °F 30.15 in Calm     83% 0.00 in WeatherDisplay:10.37 W/m2 CLR
23:00 59.4 °F 53.6 °F 30.15 in Calm     81% 0.00 in WeatherDisplay:10.37 W/m2 CLR
23:05 59.3 °F 53.8 °F 30.15 in Calm     82% 0.00 in WeatherDisplay:10.37 W/m2 CLR
23:10 59.3 °F 54.1 °F 30.15 in Calm     83% 0.00 in WeatherDisplay:10.37 W/m2 CLR
23:20 59.1 °F 53.6 °F 30.15 in Calm     82% 0.00 in WeatherDisplay:10.37 W/m2 CLR
23:30 58.9 °F 53.8 °F 30.16 in Calm     83% 0.00 in WeatherDisplay:10.37 W/m2 CLR
23:40 58.7 °F 53.9 °F 30.16 in Calm     84% 0.00 in WeatherDisplay:10.37 W/m2 CLR
23:45 58.6 °F 53.5 °F 30.16 in Calm     83% 0.00 in WeatherDisplay:10.37 W/m2 CLR
23:50 58.6 °F 53.8 °F 30.16 in Calm     84% 0.00 in WeatherDisplay:10.37 W/m2 CLR
23:55 58.6 °F 53.1 °F 30.16 in Calm     82% 0.00 in WeatherDisplay:10.37 W/m2 CLR
Piedmont Bend
Compliments of Weather Underground - 4 mb